Latest Weather Observations for Fitzroy Crossing

IDW60801

Issued at 11:02 am WST Saturday 1 August 2015 (issued every 30 minutes, with the page automatically refreshed every 10 minutes)

About weather observations | Map of weather stations | Latest weather observations for WA | Other Formats
Station Details ID: 003093 Name: FITZROY CROSSING AERO Lat: -18.18 Lon: 125.56 Height: 114.5 m
Data from the previous 72 hours. | See also: Recent months at Fitzroy Crossing
Date/Time
WST
Temp
°C
App
Temp
°C
Dew
Point
Rel
Hum
%
Delta-T
°C
Wind Press
QNH
hPa
Press
MSL
hPa
Rain
since 9 am
mm
Dir
 
Spd
km/h
Gust
km/h
Spd
kts
Gust
kts
01/11:00am 31.6 29.0 4.4 18 14.2 N 7 15 4 8 1016.8 1016.3 0.0
01/10:30am 30.9 28.7 6.0 21 13.3 NW 7 13 4 7 1017.2 1016.7 0.0
01/10:00am 30.2 29.2 7.4 24 12.4 WNW 2 9 1 5 1017.6 1017.1 0.0
01/09:30am 28.2 27.2 7.4 27 11.2 SSW 2 9 1 5 1018.0 1017.5 0.0
01/09:00am 26.7 26.3 8.2 31 10.0 CALM 0 6 0 3 1018.0 1017.5 0.0
01/08:30am 24.4 22.1 7.5 34 8.9 NNW 9 11 5 6 1018.0 1017.5 0.0
01/08:00am 21.4 18.8 6.1 37 7.7 NNW 9 11 5 6 1017.7 1017.2 0.0
01/07:30am 17.9 15.3 3.0 37 6.9 NNE 6 7 3 4 1017.3 1016.9 0.0
01/07:00am 15.3 12.2 1.1 38 6.2 N 7 9 4 5 1016.9 1016.5 0.0
01/06:30am 11.9 7.9 -2.3 37 5.6 NE 9 11 5 6 1016.6 1016.2 0.0
01/06:00am 12.1 7.3 -2.5 36 5.7 NNW 13 13 7 7 1016.2 1015.8 0.0
01/05:30am 12.7 8.4 -2.0 36 5.8 N 11 11 6 6 1016.0 1015.6 0.0
01/05:00am 11.3 8.8 -3.6 35 5.6 CALM 0 0 0 0 1015.8 1015.4 0.0
01/04:30am 13.2 10.9 -2.3 34 6.1 CALM 0 0 0 0 1015.6 1015.2 0.0
01/04:00am 14.4 10.9 -1.2 34 6.4 SW 7 9 4 5 1015.4 1015.0 0.0
01/03:30am 13.0 9.0 -2.5 34 6.1 SW 9 13 5 7 1015.4 1015.0 0.0
01/03:00am 12.9 8.9 -2.6 34 6.1 N 9 13 5 7 1015.4 1015.0 0.0
01/02:30am 13.0 9.5 -2.9 33 6.2 ENE 6 9 3 5 1015.3 1014.9 0.0
01/02:00am 13.0 8.4 -3.7 31 6.4 E 11 15 6 8 1015.2 1014.8 0.0
01/01:30am 13.2 10.7 -4.0 30 6.6 CALM 0 0 0 0 1015.3 1014.9 0.0
01/01:00am 13.5 10.9 -4.6 28 6.8 CALM 0 0 0 0 1015.4 1015.0 0.0
01/12:30am 14.4 11.9 -4.3 27 7.2 CALM 0 0 0 0 1015.5 1015.1 0.0
01/12:00am 15.3 11.5 -4.1 26 7.6 N 7 9 4 5 1015.5 1015.1 0.0
 
Date/Time
WST
Temp
°C
App
Temp
°C
Dew
Point
Rel
Hum
%
Delta-T
°C
Wind Press
QNH
hPa
Press
MSL
hPa
Rain
since 9 am
mm
Dir
 
Spd
km/h
Gust
km/h
Spd
kts
Gust
kts
31/11:30pm 16.2 12.0 -3.8 25 7.9 N 9 9 5 5 1015.6 1015.2 0.0
31/11:00pm 16.7 14.2 -3.9 24 8.2 CALM 0 0 0 0 1015.7 1015.3 0.0
31/10:30pm 17.8 15.3 -4.2 22 8.8 CALM 0 0 0 0 1015.7 1015.3 0.0
31/10:00pm 18.3 15.8 -4.4 21 9.1 CALM 0 0 0 0 1015.7 1015.3 0.0
31/09:30pm 17.5 14.8 -5.7 20 8.9 CALM 0 0 0 0 1015.6 1015.2 0.0
31/09:00pm 20.1 17.5 -4.9 18 10.1 CALM 0 0 0 0 1015.6 1015.2 0.0
31/08:30pm 20.6 18.0 -5.3 17 10.4 CALM 0 0 0 0 1015.5 1015.1 0.0
31/08:00pm 22.7 19.5 -3.6 17 11.1 N 4 6 2 3 1015.5 1015.1 0.0
31/07:30pm 22.7 20.2 -4.4 16 11.3 CALM 0 0 0 0 1015.4 1015.0 0.0
31/07:00pm 22.8 20.1 -6.1 14 11.7 CALM 0 0 0 0 1014.9 1014.5 0.0
31/06:30pm 24.3 21.6 -5.8 13 12.4 CALM 0 0 0 0 1014.5 1014.1 0.0
31/06:00pm 25.8 23.1 -5.7 12 13.2 CALM 0 4 0 2 1014.1 1013.7 0.0
31/05:30pm 27.9 24.9 -5.2 11 14.3 NE 2 6 1 3 1013.7 1013.4 0.0
31/05:00pm 30.5 27.6 -4.5 10 15.6 NE 2 6 1 3 1013.5 1013.2 0.0
31/04:30pm 31.9 28.7 -3.5 10 16.2 SSW 4 7 2 4 1013.4 1013.0 0.0
31/04:00pm 31.8 28.2 -3.5 10 16.2 SE 6 11 3 6 1013.3 1012.9 0.0
31/03:30pm 32.1 27.8 -2.0 11 16.1 ESE 11 17 6 9 1013.4 1013.0 0.0
31/03:00pm 32.4 28.5 -1.8 11 16.2 E 9 20 5 11 1013.6 1013.3 0.0
31/02:30pm 32.4 27.9 -0.6 12 15.9 E 13 20 7 11 1013.7 1013.4 0.0
31/02:00pm 32.6 28.1 -0.5 12 16.0 SE 13 24 7 13 1014.1 1013.7 0.0
31/01:30pm 32.8 28.1 0.8 13 15.9 NE 15 24 8 13 1014.6 1014.2 0.0
31/01:00pm 32.2 28.3 1.3 14 15.4 ESE 11 28 6 15 1015.1 1014.7 0.0
31/12:30pm 32.1 28.4 2.2 15 15.1 NNE 11 20 6 11 1015.6 1015.2 0.0
31/12:00pm 31.5 27.5 2.7 16 14.6 ESE 13 20 7 11 1016.3 1015.9 0.0
31/11:30am 31.7 27.9 3.7 17 14.5 NE 13 19 7 10 1016.8 1016.4 0.0
31/11:00am 30.9 26.1 4.6 19 13.7 NE 19 30 10 16 1017.3 1016.9 0.0
31/10:30am 30.2 25.6 5.5 21 13.0 NE 19 28 10 15 1017.8 1017.4 0.0
31/10:00am 29.9 25.3 6.5 23 12.5 NE 20 32 11 17 1018.3 1017.9 0.0
31/09:30am 28.7 25.2 7.3 26 11.5 ENE 15 20 8 11 1018.6 1018.2 0.0
31/09:00am 26.9 22.1 7.4 29 10.4 NE 22 32 12 17 1018.8 1018.4 0.0
31/08:30am 26.1 23.4 9.0 34 9.4 ENE 13 20 7 11 1018.6 1018.2 0.0
31/08:00am 23.3 20.4 8.2 38 8.0 ENE 13 17 7 9 1018.4 1018.0 0.0
31/07:30am 20.5 18.5 7.2 42 6.8 ENE 7 11 4 6 1018.2 1017.8 0.0
31/07:00am 15.8 13.3 3.6 44 5.6 NE 6 7 3 4 1018.0 1017.6 0.0
31/06:30am 12.0 8.7 0.1 44 4.9 E 7 7 4 4 1017.7 1017.3 0.0
31/06:00am 14.9 10.9 2.8 44 5.4 E 13 15 7 8 1017.3 1016.9 0.0
31/05:30am 13.0 11.1 0.7 43 5.2 CALM 0 7 0 4 1017.0 1016.6 0.0
31/05:00am 13.7 11.1 1.0 42 5.4 ENE 4 7 2 4 1016.8 1016.4 0.0
31/04:30am 12.9 10.2 0.0 41 5.4 NNE 4 6 2 3 1016.7 1016.3 0.0
31/04:00am 13.7 10.6 0.4 40 5.6 NNE 6 7 3 4 1016.5 1016.1 0.0
31/03:30am 16.5 13.2 2.5 39 6.4 NE 9 13 5 7 1016.6 1016.2 0.0
31/03:00am 15.2 12.3 1.4 39 6.0 N 6 7 3 4 1016.5 1016.1 0.0
31/02:30am 15.5 12.4 1.3 38 6.2 NNW 7 9 4 5 1016.6 1016.2 0.0
31/02:00am 15.1 12.1 0.5 37 6.3 NNW 6 7 3 4 1016.7 1016.3 0.0
31/01:30am 14.2 10.8 -0.6 36 6.2 NNW 7 9 4 5 1016.7 1016.3 0.0
31/01:00am 17.3 14.4 1.7 35 7.0 ESE 6 9 3 5 1017.0 1016.6 0.0
31/12:30am 15.8 13.8 0.0 34 6.8 CALM 0 0 0 0 1017.2 1016.8 0.0
31/12:00am 17.7 14.6 1.2 33 7.4 ESE 7 9 4 5 1017.3 1016.9 0.0
 
Date/Time
WST
Temp
°C
App
Temp
°C
Dew
Point
Rel
Hum
%
Delta-T
°C
Wind Press
QNH
hPa
Press
MSL
hPa
Rain
since 9 am
mm
Dir
 
Spd
km/h
Gust
km/h
Spd
kts
Gust
kts
30/11:30pm 17.2 15.3 0.4 32 7.3 CALM 0 0 0 0 1017.3 1016.9 0.0
30/11:00pm 17.2 13.9 -0.1 31 7.5 ESE 7 11 4 6 1017.5 1017.1 0.0
30/10:30pm 19.5 16.0 1.5 30 8.2 E 9 11 5 6 1017.6 1017.2 0.0
30/10:00pm 21.0 17.7 2.3 29 8.7 ESE 9 11 5 6 1017.8 1017.4 0.0
30/09:30pm 21.2 17.8 2.0 28 9.0 ESE 9 11 5 6 1017.7 1017.3 0.0
30/09:00pm 21.6 17.8 1.8 27 9.2 SE 11 11 6 6 1017.6 1017.2 0.0
30/08:30pm 22.2 18.0 1.8 26 9.6 SE 13 13 7 7 1017.6 1017.2 0.0
30/08:00pm 23.6 20.2 1.9 24 10.3 SSE 9 11 5 6 1017.5 1017.1 0.0
30/07:30pm 24.6 21.2 2.1 23 10.8 SE 9 11 5 6 1017.4 1017.0 0.0
30/07:00pm 26.0 22.7 2.7 22 11.4 SE 9 11 5 6 1016.9 1016.5 0.0
30/06:30pm 26.1 22.7 2.1 21 11.6 SE 9 11 5 6 1016.6 1016.2 0.0
30/06:00pm 26.4 22.8 0.9 19 12.1 SE 9 9 5 5 1016.3 1015.9 0.0
30/05:30pm 28.4 25.2 1.0 17 13.2 E 7 7 4 4 1016.1 1015.7 0.0
30/05:00pm 30.9 29.0 3.0 17 14.2 ESE 2 9 1 5 1016.0 1015.6 0.0
30/04:30pm 32.0 28.4 3.1 16 14.8 E 11 17 6 9 1015.9 1015.5 0.0
30/04:00pm 32.3 28.6 4.2 17 14.7 E 13 20 7 11 1015.8 1015.4 0.0
30/03:30pm 32.7 30.3 4.5 17 14.8 ESE 6 15 3 8 1015.7 1015.3 0.0
30/03:00pm 33.4 30.2 5.0 17 15.1 NE 11 19 6 10 1015.9 1015.5 0.0
30/02:30pm 33.1 30.0 5.6 18 14.8 ENE 11 24 6 13 1016.0 1015.6 0.0
30/02:00pm 33.0 29.9 5.5 18 14.7 ENE 11 22 6 12 1016.2 1015.8 0.0
30/01:30pm 32.9 28.7 5.5 18 14.7 E 17 26 9 14 1016.7 1016.3 0.0
30/01:00pm 32.1 28.3 5.6 19 14.1 ENE 15 28 8 15 1017.0 1016.6 0.0
30/12:30pm 32.2 28.1 6.4 20 14.0 NE 17 30 9 16 1017.6 1017.2 0.0
30/12:00pm 31.9 27.8 6.2 20 13.8 ENE 17 24 9 13 1018.2 1017.8 0.0
30/11:30am 31.4 26.3 5.8 20 13.7 ENE 22 30 12 16 1018.8 1018.4 0.0
30/11:00am 30.9 25.4 6.0 21 13.3 ENE 24 35 13 19 1019.5 1019.1 0.0
30/10:30am 30.1 24.4 6.7 23 12.6 ENE 26 37 14 20 1019.7 1019.3 0.0
30/10:00am 29.3 24.1 7.2 25 11.9 ENE 24 39 13 21 1020.2 1019.8 0.0
30/09:30am 27.7 22.9 7.5 28 10.9 E 22 30 12 16 1020.5 1020.1 0.0
30/09:00am 26.0 22.2 7.6 31 9.8 E 17 24 9 13 1020.7 1020.3 0.0
30/08:30am 24.5 21.9 7.6 34 9.0 ENE 11 19 6 10 1020.7 1020.3 0.0
30/08:00am 21.8 18.8 6.1 36 7.9 E 11 15 6 8 1020.5 1020.1 0.0
30/07:30am 19.6 16.4 5.3 39 7.0 E 11 17 6 9 1020.1 1019.7 0.0
30/07:00am 16.9 13.8 3.6 41 6.2 E 9 11 5 6 1019.9 1019.5 0.0
30/06:30am 14.3 10.8 1.2 41 5.7 ESE 9 11 5 6 1019.8 1019.4 0.0
30/06:00am 12.5 8.7 -0.7 40 5.4 ESE 9 11 5 6 1019.4 1019.0 0.0
30/05:30am 13.0 10.9 -1.0 38 5.7 CALM 0 0 0 0 1019.1 1018.7 0.0
30/05:00am 12.5 10.3 -1.8 37 5.7 CALM 0 0 0 0 1018.8 1018.4 0.0
30/04:30am 12.6 10.3 -2.4 35 5.9 CALM 0 0 0 0 1018.7 1018.3 0.0
30/04:00am 13.7 11.5 -1.9 34 6.3 CALM 0 0 0 0 1018.5 1018.1 0.0
30/03:30am 14.3 12.1 -1.7 33 6.5 CALM 0 0 0 0 1018.6 1018.2 0.0
30/03:00am 14.8 12.6 -1.7 32 6.7 CALM 0 6 0 3 1018.7 1018.3 0.0
30/02:30am 16.2 11.3 -0.5 32 7.1 S 15 17 8 9 1018.6 1018.2 0.0
30/02:00am 16.2 12.4 -0.5 32 7.1 SSW 9 13 5 7 1018.7 1018.3 0.0
30/01:30am 15.2 13.0 -1.8 31 7.0 CALM 0 0 0 0 1018.8 1018.4 0.0
30/01:00am 14.7 12.4 -2.2 31 6.8 CALM 0 0 0 0 1018.9 1018.5 0.0
30/12:30am 15.2 12.9 -2.2 30 7.1 CALM 0 0 0 0 1018.9 1018.5 0.0
30/12:00am 14.6 12.2 -3.2 29 7.0 CALM 0 0 0 0 1019.1 1018.7 0.0
 
Date/Time
WST
Temp
°C
App
Temp
°C
Dew
Point
Rel
Hum
%
Delta-T
°C
Wind Press
QNH
hPa
Press
MSL
hPa
Rain
since 9 am
mm
Dir
 
Spd
km/h
Gust
km/h
Spd
kts
Gust
kts
29/11:30pm 17.0 14.8 -1.6 28 7.8 CALM 0 0 0 0 1019.1 1018.7 0.0
29/11:00pm 16.9 14.6 -2.7 26 8.0 CALM 0 0 0 0 1019.1 1018.7 0.0
29/10:30pm 17.2 14.8 -3.0 25 8.2 CALM 0 0 0 0 1019.1 1018.7 0.0
29/10:00pm 18.1 15.7 -2.8 24 8.6 CALM 0 6 0 3 1019.1 1018.7 0.0
29/09:30pm 20.7 16.5 -1.2 23 9.6 SE 11 13 6 7 1019.1 1018.7 0.0
29/09:00pm 21.3 17.1 -0.6 23 9.7 SE 11 13 6 7 1019.0 1018.6 0.0
29/08:30pm 21.3 17.0 -1.3 22 9.9 SE 11 13 6 7 1018.9 1018.5 0.0
29/08:00pm 21.6 17.3 -1.6 21 10.1 SE 11 13 6 7 1018.9 1018.5 0.0
29/07:30pm 22.1 17.8 -1.9 20 10.5 SE 11 13 6 7 1018.8 1018.4 0.0
29/07:00pm 22.8 18.5 -2.0 19 10.8 SE 11 13 6 7 1018.5 1018.1 0.0
29/06:30pm 23.3 18.8 -3.1 17 11.4 SE 11 13 6 7 1018.3 1017.9 0.0
29/06:00pm 24.1 20.0 -3.3 16 11.8 SE 9 11 5 6 1017.9 1017.5 0.0
29/05:30pm 26.0 21.8 -3.5 14 12.9 SE 9 9 5 5 1017.7 1017.3 0.0
29/05:00pm 28.6 24.3 -1.5 14 13.9 ESE 11 15 6 8 1017.5 1017.1 0.0
29/04:30pm 29.9 25.0 -0.5 14 14.5 ESE 15 22 8 12 1017.3 1016.9 0.0
29/04:00pm 30.3 25.1 -0.1 14 14.6 ESE 17 24 9 13 1017.2 1016.8 0.0
29/03:30pm 30.8 25.6 0.2 14 14.8 E 17 26 9 14 1017.1 1016.7 0.0
29/03:00pm 30.9 25.2 0.3 14 14.8 E 20 28 11 15 1017.2 1016.8 0.0
29/02:30pm 30.9 25.4 0.3 14 14.9 E 19 32 10 17 1017.3 1016.9 0.0
29/02:00pm 31.1 26.3 0.5 14 14.9 ESE 15 26 8 14 1017.6 1017.2 0.0
29/01:30pm 30.8 26.0 0.2 14 14.8 ESE 15 26 8 14 1018.0 1017.6 0.0
29/01:00pm 31.5 25.8 0.8 14 15.1 ESE 20 32 11 17 1018.4 1018.0 0.0
29/12:30pm 31.0 25.4 1.4 15 14.6 E 20 30 11 16 1018.9 1018.5 0.0
29/12:00pm 30.1 24.5 1.5 16 14.1 E 20 30 11 16 1019.4 1019.0 0.0
29/11:30am 29.4 23.7 2.6 18 13.4 E 22 33 12 18 1020.1 1019.7 0.0

Other Formats:

Comma delimited format used in spreadsheet applications
http://www.bom.gov.au/fwo/IDW60801/IDW60801.94206.axf

JavaScript Object Notation format (JSON) in row-major order
http://www.bom.gov.au/fwo/IDW60801/IDW60801.94206.json